Station info - map view · info · telemetry · weather · raw · status · beacons · messages · bulletins · browse · moving · my account
Callsign, ship name or locator: Clear       
It is possible to search using wildcards (*?) after a prefix. Example: OH*
APRS station DO4BZ-9 - show graphs
Map loading...
Comment: 144.725 MHz * Holger * http://www.do4bz.de
Mic-E message: En route
Last status: 144.725 MHz * Holger * http://www.do4bz.de
Location: 52°26.21' N 9°36.41' E - locator JO42TK24TU - show map - static map
6.1 miles West bearing 261° from Langenhagen, Lower Saxony, Germany [?]
7.0 miles Northwest bearing 311° from Hannover, Lower Saxony, Germany
55.3 miles Southeast bearing 143° from Bremen, Bremen, Germany
Last position: 2017-02-25 15:31:06 EST (1d 17h3m ago)
2017-02-25 21:31:06 CET local time at Langenhagen, Germany [?]
Altitude: 194 ft
Course:
Speed: 22 MPH
Last path: DO4BZ-9>UR2VR1 via DB0FD*,WIDE2-2,qAR,DO8FN-10 (good)
Positions stored: 12041
Packet rate: 74 seconds between packets on average during 519 seconds.
Other SSIDs: DO4BZ DO4BZ-10 DO4BZ-7
Stations near current position of DO4BZ-9 - show more
callsign distance last heard - EST      callsign distance last heard - EST
DO4BZ-7300.9 yards 341°2017-02-25 15:24:17 HANNA1.5 miles 147°2017-02-27 08:20:07
EVENTUM1.5 miles 142°2017-02-27 07:25:30 BERLENA1.8 miles 190°2017-02-27 08:27:59
ANDAMENTO1.9 miles 123°2017-02-27 07:30:20 ANGUERA2.0 miles 120°2017-02-27 08:30:28
HOOP OP ZEGEN2.1 miles 119°2017-02-27 06:29:22 BM52292.2 miles 116°2017-02-27 08:33:30
MARTINI2.2 miles 116°2017-02-27 08:29:05 2116272502.5 miles 204°2017-02-27 06:47:38
DO9BG-92.6 miles 311°2017-02-27 08:29:39 ALESSANDRO2.6 miles 205°2017-02-27 08:31:37
SCHUB 2407 <<2.9 miles 211°2017-02-27 06:33:20 MISSISSIPPI3.2 miles 107°2017-02-27 08:33:46
DL9OBD-93.4 miles 83°2017-02-27 08:10:44 ROTHENSEE3.4 miles 157°2017-02-27 08:34:15
WESERLAND3.6 miles 105°2017-02-27 06:33:51 SIRIUS3.8 miles 105°2017-02-27 08:08:29
EDDV3.8 miles 57°2017-02-27 08:30:08 EBEN HAEZER4.6 miles 107°2017-02-27 06:37:48
Stations which heard DO4BZ-9 directly on radio –
callsign pkts first heard - EST last heard longest (tx => rx) longest at - EST
DB0FD 149 2017-02-02 05:37:30 2017-02-25 15:31:06 JO42LF > JO42SF 23.2 miles 84° 2017-02-17 10:28:50
DB0END 8 2017-02-17 12:06:11 2017-02-19 07:12:17 JO31RJ > JO31PH 8.5 miles 223° 2017-02-19 07:12:17
DB0RHB 1 2017-02-17 13:33:23 2017-02-17 13:33:23 JO30LV > JO30LN 21.3 miles 182° 2017-02-17 13:33:23
DB0BI 3 2017-02-17 10:51:24 2017-02-17 11:04:04 JO41CT > JO42FA 18.3 miles 43° 2017-02-17 11:04:04
DK0HQ 5 2017-02-18 05:39:26 2017-02-19 06:09:37 JO30LT > JO30NR 8.9 miles 131° 2017-02-19 06:09:37
DL8KZ 2 2017-02-18 06:11:30 2017-02-19 06:18:57 JO30MW > JO30PQ 19.1 miles 151° 2017-02-19 06:18:57
DB0HAT 13 2017-02-17 11:18:31 2017-02-19 07:38:24 JO41AS > JO31VQ 12.3 miles 237° 2017-02-19 07:38:24
DB0ZV 3 2017-02-17 11:36:51 2017-02-17 11:38:51 JO31TL > JO31RJ 7.6 miles 214° 2017-02-17 11:38:51
DB0ROD 3 2017-02-17 10:15:24 2017-02-19 08:43:41 JO42PG > JO42QH 3.4 miles 63° 2017-02-19 08:43:41
DK1SR 9 2017-02-17 10:36:34 2017-02-19 08:25:28 JO42JD > JO41HX 13.6 miles 211° 2017-02-17 10:36:34
DB0TVH 30 2017-02-07 05:00:15 2017-02-15 10:00:39 JO42TK > JO42UJ 5.2 miles 119° 2017-02-08 02:47:41
DL2SB-10 1 2017-02-17 12:12:47 2017-02-17 12:12:47 JO31PG > JO31NG 5.0 miles 273° 2017-02-17 12:12:47
DB0EIR-10 4 2017-02-17 12:10:09 2017-02-19 07:07:21 JO31QI > JO31PH 3.2 miles 255° 2017-02-19 07:07:21
DB0ENL-10 3 2017-02-17 12:08:57 2017-02-19 07:06:51 JO31PI > JO31QG 3.3 miles 156° 2017-02-19 07:06:51
DB0NOS 1 2017-02-17 10:57:48 2017-02-17 10:57:48 JO41EU > JO41HW 12.7 miles 72° 2017-02-17 10:57:48
DB0NX-10 1 2017-02-17 11:37:50 2017-02-17 11:37:50 JO31TL > JO31TH 11.0 miles 175° 2017-02-17 11:37:50
DJ1SA-10 1 2017-02-17 11:43:19 2017-02-17 11:43:19 JO31TL > JO30EB 111.3 miles 209° 2017-02-17 11:43:19
DG4DAA-13 8 2017-02-17 11:11:55 2017-02-19 07:35:30 JO31XR > JO31XO 7.3 miles 189° 2017-02-17 11:11:55

Only position packets which were originated by the station are shown here. The range statistics show some extra long hops, because some digipeaters do not correctly add themselves to the digipeater path. Please check the raw packets.
About this site
This page shows real-time information collected from the Automatic Position Reporting System Internet network (APRS-IS). APRS is used by amateur (ham) radio operators to transmit real-time position information, weather data, telemetry and messages over the radio. A vehicle equipped with a GPS receiver, a VHF transmitter or HF transceiver and a small computer device called a tracker transmits it's location, speed and course in a small data packet, which is then received by a nearby iGate receiving site which forwards the packet on the Internet. Systems connected to the Internet can send information on the APRS-IS without a radio transmitter, or collect and display information transmitted anywhere in the world.
FAQ · Blog · Discussion group · Linking to aprs.fi · AIS sites · Service status · Database statistics · Advertising on aprs.fi · Technical details · API · Change log · Planned changes · Credits and thanks · Terms Of Service · iPhone/iPad APRS